createdAt,value
2019-04-05T00:00:01.205Z,100.00
2019-04-05T00:05:01.503Z,100.00
2019-04-05T00:10:01.060Z,100.00
2019-04-05T00:15:14.251Z,100.00
2019-04-05T00:20:01.055Z,100.00
2019-04-05T00:25:01.894Z,100.00
2019-04-05T00:30:01.068Z,100.00
2019-04-05T00:35:01.081Z,100.00
2019-04-05T00:40:01.446Z,100.00
2019-04-05T00:45:01.089Z,100.00
2019-04-05T00:50:01.100Z,100.00
2019-04-05T00:55:01.100Z,100.00
2019-04-05T01:00:01.102Z,100.00
2019-04-05T01:05:01.104Z,100.00
2019-04-05T01:10:01.395Z,100.00
2019-04-05T01:15:01.425Z,100.00
2019-04-05T01:20:01.064Z,100.00
2019-04-05T01:25:01.357Z,100.00
2019-04-05T01:30:01.087Z,100.00
2019-04-05T01:35:01.068Z,100.00
2019-04-05T01:40:01.379Z,100.00
2019-04-05T01:45:01.489Z,100.00
2019-04-05T01:50:01.063Z,100.00
2019-04-05T01:55:01.073Z,100.00
2019-04-05T02:00:01.492Z,100.00
2019-04-05T02:05:01.121Z,100.00
2019-04-05T02:10:01.057Z,100.00
2019-04-05T02:15:01.126Z,100.00
2019-04-05T02:20:01.043Z,100.00
2019-04-05T02:25:01.090Z,100.00
2019-04-05T02:30:01.096Z,100.00
2019-04-05T02:35:01.111Z,100.00
2019-04-05T03:20:01.121Z,100.00
2019-04-05T03:25:01.074Z,100.00
2019-04-05T03:30:01.086Z,100.00
2019-04-05T03:35:01.063Z,100.00
2019-04-05T03:40:01.225Z,100.00
2019-04-05T03:45:01.247Z,100.00
2019-04-05T03:50:01.145Z,100.00
2019-04-05T03:55:01.270Z,100.00
2019-04-05T04:00:01.042Z,100.00
2019-04-05T04:05:01.089Z,100.00
2019-04-05T04:10:01.093Z,100.00
2019-04-05T04:15:01.114Z,100.00
2019-04-05T04:20:01.049Z,100.00
2019-04-05T04:25:01.177Z,100.00
2019-04-05T04:30:01.106Z,100.00
2019-04-05T04:35:01.278Z,100.00
2019-04-05T04:40:01.188Z,100.00
2019-04-05T04:45:11.967Z,100.00
2019-04-05T04:50:01.055Z,99.60
2019-04-05T04:55:01.071Z,96.68
2019-04-05T05:00:01.305Z,96.31
2019-04-05T05:05:01.108Z,94.81
2019-04-05T05:10:03.235Z,91.71
2019-04-05T05:15:01.118Z,90.85
2019-04-05T05:20:01.098Z,90.64
2019-04-05T05:25:01.152Z,87.48
2019-04-05T05:30:01.067Z,86.92
2019-04-05T05:35:01.915Z,86.92
2019-04-05T05:40:01.317Z,86.62
2019-04-05T05:45:01.040Z,85.07
2019-04-05T05:50:01.308Z,85.03
2019-04-05T05:55:01.049Z,83.67
2019-04-05T06:00:01.233Z,84.14
2019-04-05T06:05:01.058Z,82.36
2019-04-05T06:10:01.061Z,83.54
2019-04-05T06:15:01.067Z,83.29
2019-04-05T06:20:01.269Z,82.12
2019-04-05T06:25:01.071Z,82.40
2019-04-05T06:30:01.070Z,83.33
2019-04-05T06:35:01.327Z,81.73
2019-04-05T06:40:01.056Z,82.71
2019-04-05T06:45:01.340Z,80.92
2019-04-05T06:50:01.027Z,83.80
2019-04-05T06:55:01.091Z,80.40
2019-04-05T07:00:01.066Z,82.75
2019-04-05T07:05:01.401Z,84.25
2019-04-05T07:10:01.068Z,83.91
2019-04-05T07:15:01.057Z,86.98
2019-04-05T07:20:01.109Z,86.27
2019-04-05T07:25:01.412Z,87.38
2019-04-05T07:30:01.076Z,88.49
2019-04-05T07:35:01.398Z,88.19
2019-04-05T07:40:01.066Z,86.41
2019-04-05T07:45:01.087Z,88.21
2019-04-05T07:50:01.068Z,87.72
2019-04-05T07:55:01.121Z,85.79
2019-04-05T08:00:01.383Z,84.40
2019-04-05T08:05:01.013Z,82.46
2019-04-05T08:10:03.021Z,84.40
2019-04-05T08:15:01.121Z,81.46
2019-04-05T08:20:01.062Z,82.02
2019-04-05T08:25:01.046Z,79.99
2019-04-05T08:30:01.460Z,79.87
2019-04-05T08:35:01.048Z,81.41
2019-04-05T08:40:01.050Z,85.19
2019-04-05T08:45:01.074Z,84.15
2019-04-05T08:50:01.097Z,86.24
2019-04-05T08:55:01.093Z,84.44
2019-04-05T09:00:01.104Z,86.62
2019-04-05T09:05:01.074Z,84.93
2019-04-05T09:10:01.077Z,82.54
2019-04-05T09:15:01.408Z,84.01
2019-04-05T09:20:01.539Z,81.10
2019-04-05T09:25:01.082Z,78.00
2019-04-05T09:30:01.511Z,78.60
2019-04-05T09:35:01.491Z,76.77
2019-04-05T09:40:01.060Z,76.88
2019-04-05T09:45:01.369Z,75.82
2019-04-05T09:50:01.099Z,78.27
2019-04-05T09:55:01.448Z,76.88
2019-04-05T10:00:01.501Z,77.19
2019-04-05T10:05:01.064Z,77.89
2019-04-05T10:10:01.559Z,77.98
2019-04-05T10:15:01.129Z,79.55
2019-04-05T10:20:01.477Z,78.54
2019-04-05T10:25:01.090Z,80.07
2019-04-05T10:30:01.065Z,82.06
2019-04-05T10:35:01.415Z,85.06
2019-04-05T10:40:01.105Z,83.53
2019-04-05T10:45:01.149Z,88.58
2019-04-05T10:50:03.313Z,89.04
2019-04-05T10:55:01.066Z,89.06
2019-04-05T11:00:01.432Z,93.65
2019-04-05T11:05:01.093Z,94.54
2019-04-05T11:10:01.565Z,100.00
2019-04-05T11:15:01.091Z,100.00
2019-04-05T11:20:01.081Z,100.00
2019-04-05T11:25:01.383Z,100.00
2019-04-05T11:30:01.038Z,100.00
2019-04-05T11:35:01.094Z,100.00
2019-04-05T11:40:01.086Z,100.00
2019-04-05T11:45:01.079Z,100.00
2019-04-05T11:50:01.566Z,100.00
2019-04-05T11:55:04.529Z,100.00
2019-04-05T12:00:01.137Z,100.00
2019-04-05T12:05:01.403Z,100.00
2019-04-05T12:10:01.073Z,100.00
2019-04-05T12:15:01.080Z,100.00
2019-04-05T12:20:02.716Z,100.00
2019-04-05T12:25:02.769Z,100.00
2019-04-05T12:30:01.067Z,100.00
2019-04-05T12:35:01.054Z,100.00
2019-04-05T12:40:01.147Z,100.00
2019-04-05T12:45:01.090Z,100.00
2019-04-05T12:50:01.399Z,100.00
2019-04-05T12:55:01.281Z,100.00
2019-04-05T13:00:01.506Z,100.00
2019-04-05T13:05:01.557Z,100.00
2019-04-05T13:10:01.103Z,100.00
2019-04-05T13:15:12.393Z,100.00
2019-04-05T13:20:01.359Z,100.00
2019-04-05T13:25:01.096Z,100.00
2019-04-05T13:30:01.085Z,100.00
2019-04-05T13:35:01.059Z,100.00
2019-04-05T13:40:01.064Z,100.00
2019-04-05T13:45:01.093Z,100.00
2019-04-05T13:50:01.436Z,100.00
2019-04-05T13:55:01.356Z,100.00
2019-04-05T14:00:01.185Z,100.00
2019-04-05T14:05:01.117Z,100.00
2019-04-05T14:10:01.516Z,100.00
2019-04-05T14:15:01.098Z,100.00
2019-04-05T14:20:01.075Z,100.00
2019-04-05T14:25:01.109Z,100.00
2019-04-05T14:30:03.107Z,100.00
2019-04-05T14:35:01.140Z,100.00
2019-04-05T14:40:01.146Z,100.00
2019-04-05T14:45:01.527Z,100.00
2019-04-05T14:50:01.589Z,100.00
2019-04-05T14:55:01.139Z,100.00
2019-04-05T15:00:01.070Z,100.00
2019-04-05T15:05:01.147Z,100.00
2019-04-05T15:10:03.728Z,100.00
2019-04-05T15:15:01.079Z,100.00
2019-04-05T15:20:04.770Z,100.00
2019-04-05T15:25:01.157Z,100.00
2019-04-05T15:30:01.415Z,100.00
2019-04-05T15:35:01.120Z,100.00
2019-04-05T15:40:01.149Z,100.00
2019-04-05T15:45:01.094Z,100.00
2019-04-05T15:50:01.053Z,100.00
2019-04-05T15:55:01.713Z,100.00
2019-04-05T16:00:03.859Z,100.00
2019-04-05T16:05:01.094Z,100.00
2019-04-05T16:10:01.463Z,100.00
2019-04-05T16:15:01.088Z,100.00
2019-04-05T16:20:01.637Z,100.00
2019-04-05T16:25:03.713Z,100.00
2019-04-05T16:30:01.541Z,100.00
2019-04-05T16:35:01.441Z,100.00
2019-04-05T16:40:01.106Z,100.00
2019-04-05T16:45:01.486Z,100.00
2019-04-05T16:50:01.455Z,100.00
2019-04-05T16:55:03.596Z,100.00
2019-04-05T17:00:01.529Z,100.00
2019-04-05T17:05:01.210Z,100.00
2019-04-05T17:10:01.237Z,100.00
2019-04-05T17:15:01.046Z,100.00
2019-04-05T17:20:01.081Z,100.00
2019-04-05T17:25:01.081Z,100.00
2019-04-05T17:30:01.089Z,100.00
2019-04-05T17:35:01.046Z,100.00
2019-04-05T17:40:01.079Z,100.00
2019-04-05T17:45:01.113Z,100.00
2019-04-05T17:50:01.062Z,100.00
2019-04-05T17:55:01.058Z,100.00
2019-04-05T18:00:01.078Z,100.00
2019-04-05T18:05:01.117Z,100.00
2019-04-05T18:10:01.059Z,100.00
2019-04-05T18:15:01.156Z,100.00
2019-04-05T18:20:01.415Z,100.00
2019-04-05T18:25:01.148Z,100.00
2019-04-05T18:30:01.078Z,100.00
2019-04-05T18:35:01.087Z,100.00
2019-04-05T18:40:01.121Z,100.00
2019-04-05T18:45:01.098Z,100.00
2019-04-05T18:50:03.097Z,100.00
2019-04-05T18:55:01.336Z,100.00
2019-04-05T19:00:01.069Z,100.00
2019-04-05T19:05:01.540Z,100.00
2019-04-05T19:10:01.213Z,100.00
2019-04-05T19:15:01.538Z,100.00
2019-04-05T19:20:01.286Z,100.00
2019-04-05T19:25:01.192Z,100.00
2019-04-05T19:50:01.405Z,100.00
2019-04-05T19:55:01.457Z,100.00
2019-04-05T20:00:01.201Z,100.00
2019-04-05T20:05:01.175Z,100.00
2019-04-05T20:10:01.321Z,100.00
2019-04-05T20:15:04.435Z,100.00
2019-04-05T20:20:01.168Z,100.00
2019-04-05T20:25:01.378Z,100.00
2019-04-05T20:30:01.278Z,100.00
2019-04-05T20:35:01.216Z,100.00
2019-04-05T20:40:01.358Z,100.00
2019-04-05T20:45:01.232Z,100.00
2019-04-05T20:50:01.344Z,100.00
2019-04-05T20:55:01.326Z,100.00
2019-04-05T21:00:01.182Z,100.00
2019-04-05T21:05:01.308Z,100.00
2019-04-05T21:10:01.173Z,100.00
2019-04-05T21:15:01.443Z,100.00
2019-04-05T21:20:01.296Z,100.00
2019-04-05T21:25:02.021Z,100.00
2019-04-05T21:30:01.411Z,100.00
2019-04-05T21:35:01.142Z,100.00
2019-04-05T21:40:01.426Z,100.00
2019-04-05T21:45:01.078Z,100.00
2019-04-05T21:50:01.225Z,100.00
2019-04-05T21:55:01.354Z,100.00
2019-04-05T22:00:01.650Z,100.00
2019-04-05T22:05:01.393Z,100.00
2019-04-05T22:10:01.478Z,100.00
2019-04-05T22:15:01.074Z,100.00
2019-04-05T22:20:01.087Z,100.00
2019-04-05T22:25:01.416Z,100.00
2019-04-05T22:30:01.023Z,100.00
2019-04-05T22:35:01.420Z,100.00
2019-04-05T22:40:01.075Z,100.00
2019-04-05T22:45:01.048Z,100.00
2019-04-05T22:50:01.082Z,100.00
2019-04-05T22:55:10.488Z,100.00
2019-04-05T23:00:01.362Z,100.00
2019-04-05T23:05:01.142Z,100.00
2019-04-05T23:10:01.555Z,100.00
2019-04-05T23:15:01.224Z,100.00
2019-04-05T23:20:01.083Z,100.00
2019-04-05T23:25:01.476Z,100.00
2019-04-05T23:30:01.025Z,100.00
2019-04-05T23:35:01.070Z,100.00
2019-04-05T23:40:01.082Z,100.00
2019-04-05T23:45:01.058Z,100.00
2019-04-05T23:50:01.082Z,100.00
2019-04-05T23:55:01.060Z,100.00
